Time;durP1;ratioP1;P1;durP2;ratioP2;P2;SDS_P1;SDS_P2;PMS_P1;PMS_P2;Temp;Humidity;BMP_temperature;BMP_pressure;BME280_temperature;BME280_humidity;BME280_pressure;Samples;Min_cycle;Max_cycle;Signal;HPM_P1;HPM_P2
2022/05/12 00:00:43;;;;;;;;;1.00;0.67;;;;;19.87;51.40;101329.16;5077818;27;45475;-46
2022/05/12 00:03:08;;;;;;;;;4.33;2.33;;;;;19.84;51.06;101329.53;5077064;27;45861;-42
2022/05/12 00:05:35;;;;;;;;;4.67;3.00;;;;;19.79;50.80;101322.00;5077556;27;45665;-43
2022/05/12 00:08:00;;;;;;;;;2.00;2.00;;;;;19.75;51.34;101341.50;5075963;27;45460;-41
2022/05/12 00:10:26;;;;;;;;;2.00;2.00;;;;;19.72;51.32;101340.03;5077658;27;45492;-42
2022/05/12 00:12:53;;;;;;;;;5.67;2.00;;;;;19.68;51.56;101342.28;5077227;27;45457;-44
2022/05/12 00:15:22;;;;;;;;;3.67;3.00;;;;;19.64;51.52;101343.69;5077358;27;45249;-44
2022/05/12 00:17:48;;;;;;;;;6.67;2.00;;;;;19.64;51.91;101346.38;5077248;28;45599;-43
2022/05/12 00:20:17;;;;;;;;;3.00;2.00;;;;;19.62;51.88;101339.50;5077496;27;45327;-42
2022/05/12 00:22:42;;;;;;;;;6.33;3.00;;;;;19.59;52.20;101335.28;5076936;27;46176;-44
2022/05/12 00:25:14;;;;;;;;;3.00;3.00;;;;;19.58;51.35;101344.41;5077124;27;45321;-49
2022/05/12 00:27:40;;;;;;;;;3.67;3.00;;;;;19.46;52.16;101329.72;5077119;28;45580;-42
2022/05/12 00:30:09;;;;;;;;;2.00;2.00;;;;;19.54;52.19;101348.50;5077519;27;45307;-42
2022/05/12 00:32:36;;;;;;;;;6.00;2.33;;;;;19.48;52.38;101343.06;5077059;27;46666;-42
2022/05/12 00:35:02;;;;;;;;;5.00;3.00;;;;;19.42;52.24;101341.94;5077607;28;45358;-48
2022/05/12 00:37:28;;;;;;;;;4.33;3.00;;;;;19.50;52.20;101354.47;5080733;27;45351;-42
2022/05/12 00:39:53;;;;;;;;;3.67;2.00;;;;;19.48;51.69;101357.38;5080795;27;45437;-42
2022/05/12 00:42:18;;;;;;;;;2.33;2.00;;;;;19.46;52.50;101359.41;5080871;27;46385;-51
2022/05/12 00:44:44;;;;;;;;;4.00;2.00;;;;;19.44;52.26;101367.72;5080727;27;45315;-52
2022/05/12 00:47:09;;;;;;;;;4.00;3.00;;;;;19.44;52.57;101370.41;5080765;27;45422;-46
2022/05/12 00:49:37;;;;;;;;;4.33;2.67;;;;;19.45;52.34;101369.38;5079708;28;45337;-51
2022/05/12 00:52:16;;;;;;;;;6.67;3.00;;;;;19.44;51.85;101365.00;5080335;27;47128;-47
2022/05/12 00:54:44;;;;;;;;;2.00;2.00;;;;;19.41;52.13;101365.38;5080384;27;45231;-47
2022/05/12 00:57:14;;;;;;;;;3.67;2.67;;;;;19.45;52.12;101376.63;5080605;27;45393;-48
2022/05/12 00:59:41;;;;;;;;;2.67;2.00;;;;;19.45;52.25;101384.72;5080580;27;45171;-52
2022/05/12 01:02:10;;;;;;;;;4.33;3.00;;;;;19.45;51.87;101379.34;5080029;27;46169;-41
2022/05/12 01:04:36;;;;;;;;;5.33;4.00;;;;;19.44;51.87;101383.91;5079755;27;45800;-46
2022/05/12 01:07:01;;;;;;;;;4.67;2.00;;;;;19.36;52.15;101381.31;5080268;27;45316;-42
2022/05/12 01:09:28;;;;;;;;;3.00;3.00;;;;;19.45;51.81;101387.44;5080358;27;45368;-42
2022/05/12 01:11:54;;;;;;;;;8.00;3.00;;;;;19.47;52.04;101390.78;5080238;27;47175;-50
2022/05/12 01:14:19;;;;;;;;;7.67;3.00;;;;;19.40;51.96;101379.91;5079911;27;45298;-42
2022/05/12 01:16:57;;;;;;;;;7.67;4.33;;;;;19.42;51.70;101402.16;5080288;27;45316;-43
2022/05/12 01:19:35;;;;;;;;;4.33;3.33;;;;;19.39;51.80;101397.13;5080659;27;45311;-52
2022/05/12 01:22:02;;;;;;;;;6.00;4.00;;;;;19.35;52.19;101405.78;5079976;27;47237;-46
2022/05/12 01:24:37;;;;;;;;;4.00;3.00;;;;;19.31;52.13;101408.03;5079677;27;45213;-46
2022/05/12 01:27:19;;;;;;;;;3.33;2.33;;;;;19.28;52.26;101405.69;5080267;27;45457;-51
2022/05/12 01:29:55;;;;;;;;;3.67;2.00;;;;;19.20;51.67;101403.91;5080233;28;45272;-43
2022/05/12 01:32:22;;;;;;;;;5.67;2.33;;;;;19.17;52.25;101408.84;5078460;28;45454;-42
2022/05/12 01:34:49;;;;;;;;;3.00;3.00;;;;;19.14;51.83;101410.06;5079700;27;45251;-43
2022/05/12 01:37:15;;;;;;;;;4.00;2.67;;;;;19.05;52.07;101402.28;5079719;27;45398;-45
2022/05/12 01:39:40;;;;;;;;;6.00;5.00;;;;;19.07;51.99;101417.22;5079853;27;45323;-42
2022/05/12 01:42:08;;;;;;;;;4.00;3.67;;;;;19.03;51.68;101415.09;5078266;28;46263;-51
2022/05/12 01:44:35;;;;;;;;;7.00;3.00;;;;;18.95;51.80;101408.75;5079829;27;45423;-42
2022/05/12 01:47:01;;;;;;;;;5.33;4.00;;;;;18.89;52.04;101414.06;5079554;27;46027;-45
2022/05/12 01:49:26;;;;;;;;;4.33;4.00;;;;;18.85;52.05;101420.84;5079991;27;45442;-42
2022/05/12 01:51:56;;;;;;;;;6.67;4.00;;;;;18.79;52.23;101419.72;5079441;27;46932;-42
2022/05/12 01:54:24;;;;;;;;;5.33;4.00;;;;;18.75;52.45;101422.97;5079298;27;45354;-43
2022/05/12 01:56:50;;;;;;;;;9.33;5.00;;;;;18.70;52.42;101435.13;5078542;27;45329;-43
2022/05/12 01:59:17;;;;;;;;;5.33;4.00;;;;;18.65;52.76;101433.97;5079518;27;45166;-42
2022/05/12 02:01:42;;;;;;;;;4.00;3.00;;;;;18.62;52.24;101434.34;5079416;27;46606;-42
2022/05/12 02:04:08;;;;;;;;;5.00;3.00;;;;;18.54;52.52;101435.28;5079166;27;45426;-42
2022/05/12 02:06:34;;;;;;;;;5.00;3.00;;;;;18.55;52.61;101450.41;5079447;27;45432;-42
2022/05/12 02:08:59;;;;;;;;;4.33;4.00;;;;;18.53;52.43;101448.91;5079435;27;45520;-42
2022/05/12 02:11:26;;;;;;;;;4.00;4.00;;;;;18.45;52.44;101445.25;5079030;27;46036;-44
2022/05/12 02:13:51;;;;;;;;;3.00;3.00;;;;;18.45;52.36;101447.13;5079296;27;45232;-52
2022/05/12 02:16:17;;;;;;;;;5.67;4.33;;;;;18.44;52.75;101462.44;5079281;27;45351;-45
2022/05/12 02:18:45;;;;;;;;;7.00;4.67;;;;;18.36;52.37;101450.91;5079373;27;45284;-46
2022/05/12 02:21:11;;;;;;;;;4.67;3.67;;;;;18.34;53.00;101459.19;5094310;27;45453;-45
2022/05/12 02:23:36;;;;;;;;;4.67;3.33;;;;;18.34;52.70;101469.13;5078760;27;45394;-55
2022/05/12 02:26:03;;;;;;;;;6.33;4.33;;;;;18.29;52.96;101471.50;5079334;27;45381;-42
2022/05/12 02:28:29;;;;;;;;;3.00;2.00;;;;;18.24;52.55;101472.03;5079440;27;45325;-52
2022/05/12 02:30:54;;;;;;;;;2.00;2.00;;;;;18.21;52.31;101472.41;5078774;27;47205;-52
2022/05/12 02:33:19;;;;;;;;;5.00;3.67;;;;;18.18;52.20;101472.75;5079077;27;45213;-53
2022/05/12 02:35:45;;;;;;;;;2.00;1.67;;;;;18.15;51.71;101484.72;5078956;27;45459;-46
2022/05/12 02:38:11;;;;;;;;;4.00;2.67;;;;;18.11;51.29;101483.38;5079133;27;45383;-49
2022/05/12 02:40:38;;;;;;;;;5.33;3.67;;;;;18.08;50.97;101485.63;5078820;27;46060;-51
2022/05/12 02:43:23;;;;;;;;;3.00;1.33;;;;;18.04;49.87;101487.84;5078663;27;45380;-51
2022/05/12 02:45:51;;;;;;;;;0.00;0.00;;;;;18.02;49.60;101486.31;5078988;27;45391;-52
2022/05/12 02:48:18;;;;;;;;;2.00;1.67;;;;;17.98;49.86;101491.22;5079076;27;45367;-44
2022/05/12 02:50:43;;;;;;;;;3.67;2.67;;;;;17.97;49.73;101494.09;5078549;27;46318;-47
2022/05/12 02:53:09;;;;;;;;;2.00;1.00;;;;;17.97;49.41;101494.94;5078710;27;45412;-42
2022/05/12 02:55:34;;;;;;;;;1.00;1.00;;;;;17.96;49.31;101495.94;5078784;27;45352;-44
2022/05/12 02:57:59;;;;;;;;;1.00;1.00;;;;;17.96;49.54;101493.25;5078216;27;45364;-50
2022/05/12 03:00:25;;;;;;;;;3.00;1.00;;;;;17.99;49.49;101500.97;5078669;27;45383;-48
2022/05/12 03:02:50;;;;;;;;;1.00;1.00;;;;;18.00;49.44;101499.97;5078477;27;45254;-42
2022/05/12 03:05:16;;;;;;;;;3.00;2.00;;;;;18.01;49.62;101509.72;5078738;27;45266;-49
2022/05/12 03:07:41;;;;;;;;;1.00;1.00;;;;;17.94;49.38;101503.34;5078504;27;45553;-43
2022/05/12 03:10:08;;;;;;;;;2.67;1.33;;;;;17.98;49.55;101504.69;5077688;27;45437;-49
2022/05/12 03:12:33;;;;;;;;;1.00;1.00;;;;;17.96;49.73;101509.41;5078424;27;45755;-42
2022/05/12 03:15:00;;;;;;;;;5.00;2.00;;;;;17.95;49.92;101516.66;5078259;27;45349;-45
2022/05/12 03:17:26;;;;;;;;;1.00;0.67;;;;;17.93;50.00;101512.44;5078491;27;45429;-52
2022/05/12 03:19:51;;;;;;;;;1.33;0.67;;;;;17.92;50.09;101514.31;5078216;27;45321;-42
2022/05/12 03:22:17;;;;;;;;;2.00;2.00;;;;;17.90;50.20;101510.94;5078022;27;45261;-48
2022/05/12 03:24:42;;;;;;;;;1.00;1.00;;;;;17.94;50.38;101517.66;5078056;27;45327;-51
2022/05/12 03:27:07;;;;;;;;;3.67;2.00;;;;;17.98;50.37;101520.00;5078204;27;45321;-41
2022/05/12 03:29:33;;;;;;;;;2.00;2.00;;;;;17.99;50.21;101514.41;5076839;27;45557;-44
2022/05/12 03:31:58;;;;;;;;;4.00;2.33;;;;;18.00;50.22;101518.81;5078053;27;45415;-41
2022/05/12 03:34:24;;;;;;;;;3.00;2.00;;;;;18.02;50.68;101524.00;5078065;27;45250;-41
2022/05/12 03:36:50;;;;;;;;;2.33;2.33;;;;;17.95;50.62;101513.97;5078337;27;45416;-42
2022/05/12 03:39:15;;;;;;;;;2.00;2.00;;;;;18.01;50.39;101522.34;5077468;27;46100;-43
2022/05/12 03:41:40;;;;;;;;;1.00;1.00;;;;;18.00;50.59;101524.19;5077758;27;45159;-51
2022/05/12 03:47:04;;;;;;;;;1.67;1.33;;;;;17.80;50.35;101504.09;5015520;28;45416;-42
2022/05/12 03:49:29;;;;;;;;;1.00;1.00;;;;;17.90;50.26;101521.69;5014832;28;45384;-41
2022/05/12 03:51:54;;;;;;;;;4.00;1.00;;;;;17.88;49.97;101523.75;5015046;28;45482;-41
2022/05/12 03:54:20;;;;;;;;;4.33;1.00;;;;;17.85;50.08;101523.25;5014719;28;45489;-41
2022/05/12 03:56:45;;;;;;;;;3.00;1.67;;;;;17.82;50.20;101519.03;5015238;28;45600;-50
2022/05/12 03:59:11;;;;;;;;;2.00;2.00;;;;;17.77;50.30;101513.34;5014941;28;46307;-48
2022/05/12 04:01:37;;;;;;;;;3.00;1.67;;;;;17.73;50.50;101516.53;5015038;28;45322;-46
2022/05/12 04:04:03;;;;;;;;;0.67;0.00;;;;;17.66;50.63;101521.81;5014822;28;45562;-41
2022/05/12 04:06:28;;;;;;;;;4.33;1.00;;;;;17.64;50.49;101524.66;5015229;28;45393;-46
2022/05/12 04:08:53;;;;;;;;;3.67;1.00;;;;;17.60;50.85;101541.31;5014608;28;47146;-41
2022/05/12 04:11:19;;;;;;;;;1.00;1.00;;;;;17.54;51.29;101531.25;5014000;28;45376;-43
2022/05/12 04:13:45;;;;;;;;;3.00;2.00;;;;;17.44;51.14;101531.44;4998470;28;45335;-43
2022/05/12 04:16:11;;;;;;;;;2.00;2.00;;;;;17.44;50.94;101526.91;5014998;28;45357;-52
2022/05/12 04:18:36;;;;;;;;;1.00;1.00;;;;;17.39;51.18;101536.50;5014782;28;46153;-44
2022/05/12 04:21:01;;;;;;;;;2.00;2.00;;;;;17.35;51.51;101543.22;5014621;28;45409;-45
2022/05/12 04:23:26;;;;;;;;;2.00;2.00;;;;;17.30;51.49;101548.28;5066572;28;45364;-51
2022/05/12 04:25:52;;;;;;;;;2.33;2.00;;;;;17.21;51.53;101540.22;5077223;27;45448;-46
2022/05/12 04:28:17;;;;;;;;;1.00;1.00;;;;;17.22;51.95;101554.50;5076829;27;45317;-49
2022/05/12 04:30:43;;;;;;;;;3.33;2.00;;;;;17.20;52.28;101549.31;5077206;27;45214;-43
2022/05/12 04:35:53;;;;;;;;;1.67;1.67;;;;;17.17;51.88;101546.13;5077712;28;45392;-53
2022/05/12 04:38:18;;;;;;;;;3.00;2.00;;;;;17.15;52.52;101549.00;5076959;27;46534;-48
2022/05/12 04:40:43;;;;;;;;;3.00;3.00;;;;;17.13;52.05;101559.06;5076945;27;45374;-48
2022/05/12 04:43:09;;;;;;;;;3.00;1.00;;;;;17.10;52.36;101558.56;5077261;28;45400;-42
2022/05/12 04:45:35;;;;;;;;;2.67;1.00;;;;;17.09;52.26;101562.25;5077437;27;45268;-41
2022/05/12 04:48:01;;;;;;;;;2.00;2.00;;;;;17.06;51.97;101570.66;5076628;27;46927;-43
2022/05/12 04:50:30;;;;;;;;;1.33;1.33;;;;;16.73;52.16;101524.13;5075603;28;45329;-42
2022/05/12 04:52:56;;;;;;;;;1.67;1.33;;;;;17.00;52.51;101574.88;5077071;27;45203;-53
2022/05/12 04:55:21;;;;;;;;;3.67;1.33;;;;;16.98;52.71;101568.84;5076949;27;45511;-53
2022/05/12 04:57:49;;;;;;;;;2.00;2.00;;;;;16.97;52.80;101577.88;5076716;27;46246;-42
2022/05/12 05:00:20;;;;;;;;;0.33;0.33;;;;;16.85;52.69;101552.34;5076602;27;45275;-46
2022/05/12 05:02:45;;;;;;;;;3.67;1.00;;;;;16.97;52.89;101577.88;5076808;27;45429;-44
2022/05/12 05:05:12;;;;;;;;;1.00;1.00;;;;;16.94;53.05;101571.03;5076919;27;45506;-44
2022/05/12 05:07:38;;;;;;;;;1.00;1.00;;;;;16.95;52.86;101569.16;5076540;27;47198;-51
2022/05/12 05:10:05;;;;;;;;;4.00;2.00;;;;;16.96;52.82;101578.91;5076368;27;45810;-44
2022/05/12 05:12:31;;;;;;;;;6.00;2.33;;;;;16.94;53.20;101580.94;5076333;27;45398;-46
2022/05/12 05:14:57;;;;;;;;;6.00;1.33;;;;;16.92;53.33;101574.88;5076914;27;45387;-43
2022/05/12 05:17:23;;;;;;;;;3.00;2.00;;;;;16.94;53.30;101589.00;5076446;28;45334;-40
2022/05/12 05:19:50;;;;;;;;;3.00;2.00;;;;;16.93;52.81;101589.97;5076577;27;45300;-48
2022/05/12 05:22:15;;;;;;;;;5.67;2.67;;;;;16.92;52.68;101586.47;5078779;27;45453;-44
2022/05/12 05:24:41;;;;;;;;;4.00;2.33;;;;;16.93;53.56;101595.34;5080289;27;45267;-45
2022/05/12 05:27:06;;;;;;;;;5.67;3.00;;;;;16.92;53.23;101591.00;5079794;27;46197;-45
2022/05/12 05:29:33;;;;;;;;;2.00;2.00;;;;;16.93;53.19;101598.88;5080068;27;45384;-50
2022/05/12 05:31:58;;;;;;;;;2.67;1.67;;;;;16.93;53.46;101604.25;5079991;27;45323;-43
2022/05/12 05:34:23;;;;;;;;;4.33;3.33;;;;;16.95;53.37;101614.84;5078856;28;45403;-41
2022/05/12 05:36:49;;;;;;;;;4.00;2.67;;;;;16.95;53.20;101613.00;5079926;27;46479;-48
2022/05/12 05:39:23;;;;;;;;;3.33;2.33;;;;;16.98;53.15;101616.34;5079626;27;45316;-45
2022/05/12 05:41:51;;;;;;;;;3.67;3.00;;;;;17.00;53.91;101625.94;5079822;27;45487;-47
2022/05/12 05:44:16;;;;;;;;;4.33;2.00;;;;;17.03;53.45;101628.31;5079788;27;45596;-49
2022/05/12 05:46:42;;;;;;;;;5.33;2.33;;;;;17.07;53.13;101626.13;5079383;27;46148;-51
2022/05/12 05:49:07;;;;;;;;;3.00;3.00;;;;;17.13;52.98;101628.97;5079753;27;45296;-43
2022/05/12 05:54:18;;;;;;;;;6.00;3.00;;;;;17.23;53.19;101644.91;5057096;28;45496;-49
2022/05/12 05:56:44;;;;;;;;;3.00;3.00;;;;;17.28;53.55;101641.75;5056686;28;46321;-48
2022/05/12 05:59:09;;;;;;;;;6.00;3.00;;;;;17.32;52.84;101645.75;5056731;28;45396;-51
2022/05/12 06:01:34;;;;;;;;;6.00;3.00;;;;;17.37;53.08;101654.19;5057309;28;45496;-49
2022/05/12 06:04:00;;;;;;;;;7.67;4.00;;;;;17.39;52.85;101654.84;5057171;28;45534;-54
2022/05/12 06:06:26;;;;;;;;;4.67;3.00;;;;;17.44;52.69;101668.63;5056711;28;46196;-43
2022/05/12 06:08:52;;;;;;;;;6.33;3.33;;;;;17.48;52.49;101667.25;5057086;28;45285;-52
2022/05/12 06:11:18;;;;;;;;;5.00;2.67;;;;;17.57;52.48;101677.03;5056866;28;45411;-42
2022/05/12 06:13:44;;;;;;;;;4.67;3.00;;;;;17.62;52.34;101684.59;5057012;28;45448;-41
2022/05/12 06:16:10;;;;;;;;;5.67;3.00;;;;;17.66;51.91;101677.88;5056672;28;45475;-50
2022/05/12 06:18:36;;;;;;;;;6.33;2.00;;;;;17.73;51.62;101686.06;5056632;28;45598;-49
2022/05/12 06:21:04;;;;;;;;;6.67;4.00;;;;;17.78;50.69;101681.91;5056957;28;45452;-43
2022/05/12 06:23:29;;;;;;;;;3.67;2.00;;;;;17.82;50.70;101674.31;5056881;28;45469;-41
2022/05/12 06:25:55;;;;;;;;;4.00;2.00;;;;;17.78;50.45;101664.91;5056401;28;45417;-41
2022/05/12 06:28:20;;;;;;;;;3.00;3.00;;;;;17.90;50.48;101682.38;5056658;28;45362;-42
2022/05/12 06:30:45;;;;;;;;;5.33;4.00;;;;;17.87;50.12;101680.03;5061664;28;45338;-42
2022/05/12 06:33:16;;;;;;;;;4.67;3.00;;;;;17.86;50.58;101687.25;5078324;27;45439;-44
2022/05/12 06:35:42;;;;;;;;;4.67;3.00;;;;;17.94;50.59;101689.09;5078920;27;46943;-44
2022/05/12 06:38:08;;;;;;;;;4.00;4.00;;;;;17.71;50.30;101657.50;5078851;28;45330;-44
2022/05/12 06:40:34;;;;;;;;;6.67;3.00;;;;;18.07;50.05;101684.00;5079036;27;45284;-42
2022/05/12 06:43:03;;;;;;;;;4.67;3.00;;;;;18.18;49.49;101683.63;5090337;27;45463;-49
2022/05/12 06:45:29;;;;;;;;;2.33;2.00;;;;;18.33;49.44;101691.84;5098631;27;47196;-43
2022/05/12 06:47:54;;;;;;;;;4.33;1.33;;;;;18.54;48.87;101699.34;5096721;27;45457;-43
2022/05/12 06:50:25;;;;;;;;;2.33;2.33;;;;;18.82;48.59;101697.00;5096993;27;45900;-44
2022/05/12 06:52:53;;;;;;;;;8.33;4.00;;;;;19.00;47.72;101695.88;5096440;27;45396;-42
2022/05/12 06:55:19;;;;;;;;;9.00;4.00;;;;;19.14;47.80;101698.66;5094181;27;45919;-45
2022/05/12 06:57:45;;;;;;;;;4.00;4.00;;;;;19.56;47.16;101700.00;5095814;27;45651;-43
2022/05/12 07:00:15;;;;;;;;;4.33;3.67;;;;;20.00;45.88;101691.16;5096488;27;45475;-46
2022/05/12 07:02:40;;;;;;;;;5.00;3.00;;;;;20.32;45.49;101681.00;5096413;27;45884;-42
2022/05/12 07:05:08;;;;;;;;;4.00;4.00;;;;;21.11;44.90;101691.91;5096170;27;46174;-44
2022/05/12 07:07:35;;;;;;;;;6.33;3.00;;;;;22.10;42.20;101686.47;5096338;27;46311;-41
2022/05/12 07:10:00;;;;;;;;;5.00;4.67;;;;;23.19;40.75;101682.94;5096636;27;45526;-41
2022/05/12 07:12:26;;;;;;;;;6.00;4.00;;;;;25.00;37.67;101678.50;5096258;27;45534;-41
2022/05/12 07:14:52;;;;;;;;;4.75;4.00;;;;;26.87;33.88;101679.13;5096083;27;46080;-41
2022/05/12 07:17:19;;;;;;;;;8.25;3.00;;;;;28.32;32.12;101677.69;5095995;27;45426;-41
2022/05/12 07:19:45;;;;;;;;;4.00;2.00;;;;;29.39;31.73;101684.34;5096000;27;45548;-42
2022/05/12 07:27:38;;;;;;;;;8.40;3.80;;;;;31.40;26.88;101676.41;5095710;27;45646;-42
2022/05/12 07:30:06;;;;;;;;;3.00;3.00;;;;;32.04;25.33;101673.53;5096177;27;45415;-41
2022/05/12 07:32:31;;;;;;;;;5.40;4.00;;;;;32.78;24.94;101674.31;5095966;27;45367;-42
2022/05/12 07:34:56;;;;;;;;;2.25;2.25;;;;;33.55;24.95;101678.00;5095931;27;46998;-41
2022/05/12 07:37:22;;;;;;;;;8.75;2.00;;;;;33.60;24.31;101675.22;5095496;27;45379;-42
2022/05/12 07:39:47;;;;;;;;;4.25;3.00;;;;;34.01;23.20;101659.41;5095516;27;45375;-41
2022/05/12 07:42:13;;;;;;;;;7.00;4.00;;;;;34.99;22.23;101663.28;5095783;27;45516;-42
2022/05/12 07:44:40;;;;;;;;;4.25;3.00;;;;;35.68;22.56;101663.22;5097732;27;45488;-42
2022/05/12 07:47:09;;;;;;;;;4.20;4.20;;;;;36.72;20.68;101673.53;5095514;27;45283;-43
2022/05/12 07:49:36;;;;;;;;;3.00;3.00;;;;;37.19;19.49;101655.03;5095633;27;45441;-42
2022/05/12 07:52:06;;;;;;;;;5.20;1.40;;;;;38.02;17.88;101669.88;5095671;27;45514;-41
2022/05/12 07:54:32;;;;;;;;;3.40;3.40;;;;;38.50;17.79;101654.69;5095525;27;45421;-43
2022/05/12 07:56:57;;;;;;;;;1.60;1.60;;;;;39.07;18.36;101661.38;5095189;27;45565;-42
2022/05/12 07:59:23;;;;;;;;;2.75;1.75;;;;;39.63;16.47;101673.81;5095262;27;45449;-44
2022/05/12 08:01:49;;;;;;;;;1.40;1.40;;;;;40.09;16.60;101671.69;5095812;27;45457;-42
2022/05/12 08:04:15;;;;;;;;;5.00;1.25;;;;;40.54;16.07;101666.72;5094628;27;45517;-43
2022/05/12 08:06:42;;;;;;;;;3.75;3.00;;;;;40.77;15.33;101677.69;5091983;27;45438;-45
2022/05/12 08:09:08;;;;;;;;;4.00;2.40;;;;;41.13;15.09;101674.56;5083861;27;45432;-42
2022/05/12 08:11:33;;;;;;;;;4.60;2.20;;;;;40.87;15.04;101678.16;5095096;27;45811;-43
2022/05/12 08:13:59;;;;;;;;;4.25;4.25;;;;;38.82;17.23;101681.47;5095152;27;46173;-43
2022/05/12 08:16:24;;;;;;;;;4.00;2.75;;;;;38.65;17.40;101682.97;5094809;27;45428;-43
2022/05/12 08:18:50;;;;;;;;;4.00;2.00;;;;;38.37;16.84;101686.94;5095084;27;45506;-44
2022/05/12 08:21:17;;;;;;;;;3.00;2.25;;;;;37.70;18.04;101687.44;5095325;27;45531;-43
2022/05/12 08:23:43;;;;;;;;;3.40;1.40;;;;;38.59;17.14;101694.50;5094945;27;45512;-54
2022/05/12 08:26:09;;;;;;;;;0.75;0.25;;;;;39.82;17.08;101695.03;5094981;27;45438;-44
2022/05/12 08:28:35;;;;;;;;;0.80;0.80;;;;;40.85;16.91;101696.41;5094907;27;45790;-53
2022/05/12 08:31:00;;;;;;;;;2.75;1.00;;;;;41.42;15.28;101687.78;5095239;27;45589;-53
2022/05/12 08:33:26;;;;;;;;;3.50;0.50;;;;;40.90;15.12;101688.69;5094819;27;46194;-42
2022/05/12 08:35:52;;;;;;;;;0.50;0.25;;;;;41.46;15.72;101691.56;5094764;27;45424;-54
2022/05/12 08:38:19;;;;;;;;;3.25;2.00;;;;;42.21;13.50;101686.28;5095033;27;45454;-42
2022/05/12 08:41:21;;;;;;;;;4.20;1.40;;;;;43.12;14.70;101685.75;5094802;27;45448;-48
2022/05/12 08:43:53;;;;;;;;;1.80;1.00;;;;;43.95;12.62;101682.59;5081034;27;46236;-42
2022/05/12 08:46:24;;;;;;;;;4.40;2.00;;;;;44.40;12.35;101675.19;5095005;27;45525;-41
2022/05/12 08:49:04;;;;;;;;;0.60;0.60;;;;;45.03;12.70;101678.25;5094882;27;45577;-54
2022/05/12 08:51:33;;;;;;;;;3.00;2.00;;;;;44.18;12.79;101674.53;5094993;27;45498;-42
2022/05/12 08:54:03;;;;;;;;;3.00;1.20;;;;;43.45;14.13;101677.31;5094555;27;45389;-41
2022/05/12 08:56:30;;;;;;;;;2.00;2.00;;;;;44.64;11.95;101679.94;5095742;27;45535;-42
2022/05/12 08:58:57;;;;;;;;;0.40;0.40;;;;;45.17;12.10;101667.38;5097933;27;45801;-43
2022/05/12 09:01:41;;;;;;;;;2.00;1.00;;;;;44.90;12.02;101688.72;5098493;27;45496;-44
2022/05/12 09:04:24;;;;;;;;;2.00;1.20;;;;;45.35;12.81;101683.91;5097576;27;47362;-43
2022/05/12 09:07:22;;;;;;;;;4.00;2.00;;;;;45.19;11.66;101667.88;5098224;27;46386;-44
2022/05/12 09:09:53;;;;;;;;;1.40;1.40;;;;;42.35;14.83;101680.44;5098128;27;45390;-45
2022/05/12 09:12:24;;;;;;;;;1.00;1.00;;;;;41.86;14.69;101674.50;5098199;27;45492;-42
2022/05/12 09:14:59;;;;;;;;;2.40;1.20;;;;;40.59;14.83;101671.31;5098000;27;45505;-43
2022/05/12 09:17:34;;;;;;;;;2.20;1.00;;;;;39.17;16.42;101674.19;5098072;27;45468;-42
2022/05/12 09:20:00;;;;;;;;;2.00;2.00;;;;;37.69;16.96;101689.38;5097713;27;45553;-44
2022/05/12 09:22:29;;;;;;;;;0.00;0.00;;;;;35.71;18.24;101657.91;5097970;27;45431;-42
2022/05/12 09:24:54;;;;;;;;;0.80;0.20;;;;;34.50;19.25;101697.28;5096005;27;45518;-41
2022/05/12 09:27:29;;;;;;;;;1.75;0.25;;;;;33.39;20.75;101698.38;5097735;27;45434;-41
2022/05/12 09:29:55;;;;;;;;;2.20;2.00;;;;;32.59;20.85;101698.00;5097812;27;45422;-44
2022/05/12 09:32:27;;;;;;;;;1.00;1.00;;;;;31.62;22.02;101695.53;5098038;27;45568;-41
2022/05/12 09:35:09;;;;;;;;;2.40;0.20;;;;;30.60;23.30;101693.75;5095863;27;45478;-41
2022/05/12 09:37:37;;;;;;;;;1.20;0.20;;;;;29.88;23.81;101683.75;5096713;27;45448;-42
2022/05/12 09:40:32;;;;;;;;;1.80;0.60;;;;;29.16;24.59;101695.44;5097040;27;45517;-42
2022/05/12 09:43:00;;;;;;;;;2.00;2.00;;;;;28.96;25.01;101691.28;5097568;27;45495;-43
2022/05/12 09:45:28;;;;;;;;;1.00;1.00;;;;;28.63;25.12;101691.19;5097341;27;45703;-43
2022/05/12 09:48:12;;;;;;;;;1.00;1.00;;;;;28.07;25.96;101688.94;5097259;27;45587;-41
2022/05/12 09:50:38;;;;;;;;;2.00;2.00;;;;;27.68;26.51;101675.94;5096950;27;45481;-41
2022/05/12 09:53:07;;;;;;;;;1.75;1.00;;;;;27.24;27.23;101667.25;5097635;27;45427;-42
2022/05/12 09:55:38;;;;;;;;;2.00;2.00;;;;;27.10;27.10;101686.59;5095151;27;46512;-42
2022/05/12 09:58:15;;;;;;;;;1.40;1.40;;;;;26.91;27.27;101686.84;5097079;27;45449;-45
2022/05/12 10:00:48;;;;;;;;;1.20;0.80;;;;;26.98;27.36;101688.44;5097290;27;45884;-44
2022/05/12 10:09:07;;;;;;;;;2.80;1.60;;;;;31.78;23.05;101666.22;5095298;27;45408;-42
2022/05/12 10:11:57;;;;;;;;;1.60;1.60;;;;;31.53;22.94;101672.38;5096002;27;45372;-41
2022/05/12 10:14:33;;;;;;;;;4.40;1.40;;;;;31.19;23.90;101664.41;5097157;27;45492;-42
2022/05/12 10:17:01;;;;;;;;;4.20;2.00;;;;;31.64;23.21;101660.34;5094202;27;46719;-42
2022/05/12 10:19:29;;;;;;;;;1.20;1.20;;;;;30.86;23.58;101654.47;5096745;27;45482;-47
2022/05/12 10:22:09;;;;;;;;;3.00;2.60;;;;;30.35;24.09;101664.91;5097094;27;45469;-44
2022/05/12 10:24:58;;;;;;;;;2.40;2.00;;;;;29.79;25.12;101664.13;5097169;27;45488;-42
2022/05/12 10:27:55;;;;;;;;;4.20;2.00;;;;;29.25;25.33;101667.41;5096581;27;46118;-42
2022/05/12 10:30:34;;;;;;;;;2.20;2.20;;;;;28.85;26.24;101662.03;5096583;27;45174;-44
2022/05/12 10:33:12;;;;;;;;;2.20;2.00;;;;;28.52;26.52;101658.13;5096576;27;45357;-44
2022/05/12 10:35:47;;;;;;;;;1.00;1.00;;;;;28.21;26.77;101658.56;5096719;27;45438;-41
2022/05/12 10:38:18;;;;;;;;;4.40;2.80;;;;;27.80;27.19;101668.63;5099120;27;46177;-41
2022/05/12 10:40:53;;;;;;;;;3.20;3.20;;;;;27.54;27.78;101665.25;5099224;27;45331;-42
2022/05/12 10:43:42;;;;;;;;;3.40;1.80;;;;;27.24;27.55;101665.34;5099381;27;45317;-41
2022/05/12 10:46:20;;;;;;;;;2.20;1.80;;;;;27.84;27.27;101662.41;5099431;27;45401;-42
2022/05/12 10:48:52;;;;;;;;;4.40;1.60;;;;;27.54;28.24;101661.69;5098962;27;45373;-41
2022/05/12 10:51:28;;;;;;;;;4.00;2.80;;;;;27.33;27.85;101649.44;5098838;27;45347;-42
2022/05/12 10:54:22;;;;;;;;;6.00;4.40;;;;;27.58;27.10;101655.53;5099177;27;45442;-42
2022/05/12 10:57:17;;;;;;;;;2.20;2.20;;;;;27.45;27.69;101658.50;5099207;27;45423;-44
2022/05/12 11:00:03;;;;;;;;;3.00;2.00;;;;;27.11;28.01;101654.66;5098253;27;46114;-43
2022/05/12 11:02:35;;;;;;;;;3.00;1.00;;;;;27.78;27.29;101651.63;5098952;27;45264;-42
2022/05/12 11:05:59;;;;;;;;;2.80;1.60;;;;;28.00;27.47;101655.41;5099104;27;45433;-41
2022/05/12 11:08:33;;;;;;;;;4.00;3.00;;;;;29.15;25.68;101637.09;5076625;28;45558;-42
2022/05/12 11:11:09;;;;;;;;;2.20;2.20;;;;;28.60;26.43;101646.78;5076254;28;47230;-42
2022/05/12 11:14:00;;;;;;;;;2.00;2.00;;;;;28.86;25.84;101652.72;5075891;28;45423;-41
2022/05/12 11:16:33;;;;;;;;;3.60;3.40;;;;;28.09;27.00;101650.38;5076402;28;45329;-41
2022/05/12 11:19:21;;;;;;;;;4.00;1.80;;;;;27.84;27.09;101654.22;5075737;28;45498;-42
2022/05/12 11:22:02;;;;;;;;;4.20;2.20;;;;;27.71;27.21;101651.72;5076174;28;46351;-42
2022/05/12 11:24:45;;;;;;;;;2.00;2.00;;;;;27.85;27.41;101652.31;5075508;28;45448;-44
2022/05/12 11:27:33;;;;;;;;;1.00;1.00;;;;;28.04;27.27;101645.63;5076155;28;45411;-42
2022/05/12 11:30:46;;;;;;;;;1.20;1.20;;;;;27.80;27.41;101644.00;5076143;28;45412;-41
2022/05/12 11:33:17;;;;;;;;;2.00;2.00;;;;;27.45;27.88;101646.72;5058827;28;46396;-42
2022/05/12 11:35:44;;;;;;;;;6.00;1.00;;;;;27.22;28.43;101642.91;5075993;28;45395;-43
2022/05/12 11:38:43;;;;;;;;;3.00;2.00;;;;;27.18;28.13;101649.91;5077758;27;45424;-45
2022/05/12 11:41:20;;;;;;;;;1.00;1.00;;;;;27.25;28.08;101647.06;5098704;27;45442;-45
2022/05/12 11:47:36;;;;;;;;;2.00;2.00;;;;;26.91;28.41;101645.91;5098245;27;45340;-44
2022/05/12 11:50:31;;;;;;;;;3.00;1.60;;;;;26.65;29.26;101644.41;4995416;28;45554;-42
2022/05/12 11:53:16;;;;;;;;;2.00;2.00;;;;;26.47;28.68;101648.84;4995748;28;45499;-42
2022/05/12 11:56:01;;;;;;;;;4.00;1.60;;;;;26.37;29.51;101649.34;4995232;28;47233;-43
2022/05/12 11:58:47;;;;;;;;;2.80;1.00;;;;;26.56;29.29;101655.63;4995222;28;45524;-42